sensor_id;sensor_type;location;lat;lon;timestamp;temperature;humidity
37844;DHT22;63793;57.632;18.292;2023-02-05T00:01:30;-2.30;99.90
37844;DHT22;63793;57.632;18.292;2023-02-05T00:03:57;-2.30;99.90
37844;DHT22;63793;57.632;18.292;2023-02-05T00:06:24;-2.40;99.90
37844;DHT22;63793;57.632;18.292;2023-02-05T00:08:51;-2.30;99.90
37844;DHT22;63793;57.632;18.292;2023-02-05T00:11:18;-2.40;99.90
37844;DHT22;63793;57.632;18.292;2023-02-05T00:13:44;-2.30;99.90
37844;DHT22;63793;57.632;18.292;2023-02-05T00:16:13;-2.30;99.90
37844;DHT22;63793;57.632;18.292;2023-02-05T00:18:40;-2.40;99.90
37844;DHT22;63793;57.632;18.292;2023-02-05T00:21:07;-2.50;99.90
37844;DHT22;63793;57.632;18.292;2023-02-05T00:23:35;-2.60;99.90
37844;DHT22;63793;57.632;18.292;2023-02-05T00:26:04;-2.70;99.90
37844;DHT22;63793;57.632;18.292;2023-02-05T00:28:32;-2.90;99.90
37844;DHT22;63793;57.632;18.292;2023-02-05T00:31:00;-3.00;99.90
37844;DHT22;63793;57.632;18.292;2023-02-05T00:33:27;-3.10;99.90
37844;DHT22;63793;57.632;18.292;2023-02-05T00:35:54;-3.20;99.90
37844;DHT22;63793;57.632;18.292;2023-02-05T00:38:21;-3.20;99.90
37844;DHT22;63793;57.632;18.292;2023-02-05T00:40:48;-3.30;99.90
37844;DHT22;63793;57.632;18.292;2023-02-05T00:43:15;-3.30;99.90
37844;DHT22;63793;57.632;18.292;2023-02-05T00:45:42;-3.40;99.90
37844;DHT22;63793;57.632;18.292;2023-02-05T00:48:09;-3.50;99.90
37844;DHT22;63793;57.632;18.292;2023-02-05T00:50:35;-3.50;99.90
37844;DHT22;63793;57.632;18.292;2023-02-05T00:53:03;-3.60;99.90
37844;DHT22;63793;57.632;18.292;2023-02-05T00:55:30;-3.60;99.90
37844;DHT22;63793;57.632;18.292;2023-02-05T00:57:57;-3.70;99.90
37844;DHT22;63793;57.632;18.292;2023-02-05T01:00:24;-3.70;99.90
37844;DHT22;63793;57.632;18.292;2023-02-05T01:02:53;-3.80;99.90
37844;DHT22;63793;57.632;18.292;2023-02-05T01:05:20;-3.80;99.90
37844;DHT22;63793;57.632;18.292;2023-02-05T01:07:47;-3.80;99.90
37844;DHT22;63793;57.632;18.292;2023-02-05T01:10:14;-3.90;99.90
37844;DHT22;63793;57.632;18.292;2023-02-05T01:12:41;-4.00;99.90
37844;DHT22;63793;57.632;18.292;2023-02-05T01:15:09;-4.00;99.90
37844;DHT22;63793;57.632;18.292;2023-02-05T01:17:37;-4.10;99.90
37844;DHT22;63793;57.632;18.292;2023-02-05T01:20:05;-4.20;99.90
37844;DHT22;63793;57.632;18.292;2023-02-05T01:22:32;-4.20;99.90
37844;DHT22;63793;57.632;18.292;2023-02-05T01:24:58;-4.30;99.90
37844;DHT22;63793;57.632;18.292;2023-02-05T01:27:25;-4.30;99.90
37844;DHT22;63793;57.632;18.292;2023-02-05T01:29:52;-4.30;99.90
37844;DHT22;63793;57.632;18.292;2023-02-05T01:32:19;-4.30;99.90
37844;DHT22;63793;57.632;18.292;2023-02-05T01:34:46;-4.40;99.90
37844;DHT22;63793;57.632;18.292;2023-02-05T01:37:13;-4.40;99.90
37844;DHT22;63793;57.632;18.292;2023-02-05T01:39:40;-4.50;99.90
37844;DHT22;63793;57.632;18.292;2023-02-05T01:42:31;-4.50;99.90
37844;DHT22;63793;57.632;18.292;2023-02-05T01:47:53;-4.60;99.90
37844;DHT22;63793;57.632;18.292;2023-02-05T01:53:06;-4.60;99.90
37844;DHT22;63793;57.632;18.292;2023-02-05T01:55:36;-4.70;99.90
37844;DHT22;63793;57.632;18.292;2023-02-05T01:58:05;-4.70;99.90
37844;DHT22;63793;57.632;18.292;2023-02-05T02:00:32;-4.70;99.90
37844;DHT22;63793;57.632;18.292;2023-02-05T02:02:59;-4.70;99.90
37844;DHT22;63793;57.632;18.292;2023-02-05T02:05:26;-4.70;99.90
37844;DHT22;63793;57.632;18.292;2023-02-05T02:07:53;-4.80;99.90
37844;DHT22;63793;57.632;18.292;2023-02-05T02:10:20;-4.80;99.90
37844;DHT22;63793;57.632;18.292;2023-02-05T02:12:48;-4.80;99.90
37844;DHT22;63793;57.632;18.292;2023-02-05T02:15:20;-4.80;99.90
37844;DHT22;63793;57.632;18.292;2023-02-05T02:17:52;-4.80;99.90
37844;DHT22;63793;57.632;18.292;2023-02-05T02:20:22;-4.80;99.90
37844;DHT22;63793;57.632;18.292;2023-02-05T02:26:10;-4.80;99.90
37844;DHT22;63793;57.632;18.292;2023-02-05T02:31:43;-4.90;99.90
37844;DHT22;63793;57.632;18.292;2023-02-05T02:34:21;-4.90;99.90
37844;DHT22;63793;57.632;18.292;2023-02-05T02:36:58;-4.90;99.90
37844;DHT22;63793;57.632;18.292;2023-02-05T02:42:14;-4.90;99.90
37844;DHT22;63793;57.632;18.292;2023-02-05T02:44:55;-4.80;99.90
37844;DHT22;63793;57.632;18.292;2023-02-05T02:47:28;-4.80;99.90
37844;DHT22;63793;57.632;18.292;2023-02-05T02:50:11;-4.80;99.90
37844;DHT22;63793;57.632;18.292;2023-02-05T02:52:41;-4.80;99.90
37844;DHT22;63793;57.632;18.292;2023-02-05T02:55:12;-4.80;99.90
37844;DHT22;63793;57.632;18.292;2023-02-05T02:57:44;-4.80;99.90
37844;DHT22;63793;57.632;18.292;2023-02-05T03:00:19;-4.90;99.90
37844;DHT22;63793;57.632;18.292;2023-02-05T03:02:48;-4.90;99.90
37844;DHT22;63793;57.632;18.292;2023-02-05T03:05:19;-4.90;99.90
37844;DHT22;63793;57.632;18.292;2023-02-05T03:07:51;-4.80;99.90
37844;DHT22;63793;57.632;18.292;2023-02-05T03:10:41;-4.80;99.90
37844;DHT22;63793;57.632;18.292;2023-02-05T03:13:13;-4.80;99.90
37844;DHT22;63793;57.632;18.292;2023-02-05T03:15:45;-4.90;99.90
37844;DHT22;63793;57.632;18.292;2023-02-05T03:18:14;-4.90;99.90
37844;DHT22;63793;57.632;18.292;2023-02-05T03:20:51;-4.90;99.90
37844;DHT22;63793;57.632;18.292;2023-02-05T03:23:19;-4.90;99.90
37844;DHT22;63793;57.632;18.292;2023-02-05T03:25:46;-4.90;99.90
37844;DHT22;63793;57.632;18.292;2023-02-05T03:28:15;-4.80;99.90
37844;DHT22;63793;57.632;18.292;2023-02-05T03:36:25;-4.90;99.90
37844;DHT22;63793;57.632;18.292;2023-02-05T03:39:16;-4.90;99.90
37844;DHT22;63793;57.632;18.292;2023-02-05T03:42:03;-4.90;99.90
37844;DHT22;63793;57.632;18.292;2023-02-05T03:52:15;-4.90;99.90
37844;DHT22;63793;57.632;18.292;2023-02-05T04:00:13;-4.70;99.90
37844;DHT22;63793;57.632;18.292;2023-02-05T04:02:43;-4.70;99.90
37844;DHT22;63793;57.632;18.292;2023-02-05T04:05:14;-4.70;99.90
37844;DHT22;63793;57.632;18.292;2023-02-05T04:07:42;-4.70;99.90
37844;DHT22;63793;57.632;18.292;2023-02-05T04:10:11;-4.60;99.90
37844;DHT22;63793;57.632;18.292;2023-02-05T04:12:39;-4.50;99.90
37844;DHT22;63793;57.632;18.292;2023-02-05T04:15:06;-4.50;99.90
37844;DHT22;63793;57.632;18.292;2023-02-05T04:17:37;-4.40;99.90
37844;DHT22;63793;57.632;18.292;2023-02-05T04:20:05;-4.40;99.90
37844;DHT22;63793;57.632;18.292;2023-02-05T04:22:32;-4.30;99.90
37844;DHT22;63793;57.632;18.292;2023-02-05T04:24:59;-4.30;99.90
37844;DHT22;63793;57.632;18.292;2023-02-05T04:27:26;-4.20;99.90
37844;DHT22;63793;57.632;18.292;2023-02-05T04:29:55;-4.10;99.90
37844;DHT22;63793;57.632;18.292;2023-02-05T04:32:22;-4.00;99.90
37844;DHT22;63793;57.632;18.292;2023-02-05T04:34:50;-4.00;99.90
37844;DHT22;63793;57.632;18.292;2023-02-05T04:37:17;-3.90;99.90
37844;DHT22;63793;57.632;18.292;2023-02-05T04:39:46;-3.90;99.90
37844;DHT22;63793;57.632;18.292;2023-02-05T04:42:12;-3.80;99.90
37844;DHT22;63793;57.632;18.292;2023-02-05T04:44:39;-3.80;99.90
37844;DHT22;63793;57.632;18.292;2023-02-05T04:47:06;-3.60;99.90
37844;DHT22;63793;57.632;18.292;2023-02-05T04:49:33;-3.50;99.90
37844;DHT22;63793;57.632;18.292;2023-02-05T04:52:00;-3.40;99.90
37844;DHT22;63793;57.632;18.292;2023-02-05T04:54:27;-3.30;99.90
37844;DHT22;63793;57.632;18.292;2023-02-05T04:56:54;-3.30;99.90
37844;DHT22;63793;57.632;18.292;2023-02-05T04:59:21;-3.30;99.90
37844;DHT22;63793;57.632;18.292;2023-02-05T05:01:48;-3.20;99.90
37844;DHT22;63793;57.632;18.292;2023-02-05T05:04:14;-3.20;99.90
37844;DHT22;63793;57.632;18.292;2023-02-05T05:06:41;-3.20;99.90
37844;DHT22;63793;57.632;18.292;2023-02-05T05:09:08;-3.10;99.90
37844;DHT22;63793;57.632;18.292;2023-02-05T05:11:35;-3.10;99.90
37844;DHT22;63793;57.632;18.292;2023-02-05T05:14:02;-3.10;99.90
37844;DHT22;63793;57.632;18.292;2023-02-05T05:16:28;-3.20;99.90
37844;DHT22;63793;57.632;18.292;2023-02-05T05:18:56;-3.20;99.90
37844;DHT22;63793;57.632;18.292;2023-02-05T05:21:22;-3.10;99.90
37844;DHT22;63793;57.632;18.292;2023-02-05T05:23:49;-3.00;99.90
37844;DHT22;63793;57.632;18.292;2023-02-05T05:26:16;-3.00;99.90
37844;DHT22;63793;57.632;18.292;2023-02-05T05:28:43;-3.10;99.90
37844;DHT22;63793;57.632;18.292;2023-02-05T05:31:13;-3.10;99.90
37844;DHT22;63793;57.632;18.292;2023-02-05T05:33:42;-3.00;99.90
37844;DHT22;63793;57.632;18.292;2023-02-05T05:36:09;-3.00;99.90
37844;DHT22;63793;57.632;18.292;2023-02-05T05:38:36;-2.90;99.90
37844;DHT22;63793;57.632;18.292;2023-02-05T05:41:03;-2.90;99.90
37844;DHT22;63793;57.632;18.292;2023-02-05T05:43:50;-2.90;99.90
37844;DHT22;63793;57.632;18.292;2023-02-05T05:46:25;-2.80;99.90
37844;DHT22;63793;57.632;18.292;2023-02-05T05:48:57;-2.80;99.90
37844;DHT22;63793;57.632;18.292;2023-02-05T05:51:25;-2.70;99.90
37844;DHT22;63793;57.632;18.292;2023-02-05T05:53:53;-2.60;99.90
37844;DHT22;63793;57.632;18.292;2023-02-05T05:56:20;-2.50;99.90
37844;DHT22;63793;57.632;18.292;2023-02-05T05:58:48;-2.40;99.90
37844;DHT22;63793;57.632;18.292;2023-02-05T06:01:16;-2.40;99.90
37844;DHT22;63793;57.632;18.292;2023-02-05T06:03:44;-2.30;99.90
37844;DHT22;63793;57.632;18.292;2023-02-05T06:06:11;-2.20;99.90
37844;DHT22;63793;57.632;18.292;2023-02-05T06:08:38;-2.20;99.90
37844;DHT22;63793;57.632;18.292;2023-02-05T06:11:05;-2.10;99.90
37844;DHT22;63793;57.632;18.292;2023-02-05T06:13:32;-2.00;99.90
37844;DHT22;63793;57.632;18.292;2023-02-05T06:16:00;-2.00;99.90
37844;DHT22;63793;57.632;18.292;2023-02-05T06:18:28;-1.90;99.90
37844;DHT22;63793;57.632;18.292;2023-02-05T06:20:55;-1.70;99.90
37844;DHT22;63793;57.632;18.292;2023-02-05T06:23:22;-1.60;99.90
37844;DHT22;63793;57.632;18.292;2023-02-05T06:25:49;-1.50;99.90
37844;DHT22;63793;57.632;18.292;2023-02-05T06:28:15;-1.30;99.90
37844;DHT22;63793;57.632;18.292;2023-02-05T06:30:42;-1.20;99.90
37844;DHT22;63793;57.632;18.292;2023-02-05T06:33:09;-1.10;99.90
37844;DHT22;63793;57.632;18.292;2023-02-05T06:35:39;-1.00;99.90
37844;DHT22;63793;57.632;18.292;2023-02-05T06:38:07;-1.00;99.90
37844;DHT22;63793;57.632;18.292;2023-02-05T06:40:33;-0.90;99.90
37844;DHT22;63793;57.632;18.292;2023-02-05T06:43:00;-0.80;99.90
37844;DHT22;63793;57.632;18.292;2023-02-05T06:45:27;-0.80;99.90
37844;DHT22;63793;57.632;18.292;2023-02-05T06:47:54;-0.80;99.90
37844;DHT22;63793;57.632;18.292;2023-02-05T06:50:22;-0.70;99.90
37844;DHT22;63793;57.632;18.292;2023-02-05T06:52:49;-0.70;99.90
37844;DHT22;63793;57.632;18.292;2023-02-05T06:55:17;-0.70;99.90
37844;DHT22;63793;57.632;18.292;2023-02-05T06:57:44;-0.60;99.90
37844;DHT22;63793;57.632;18.292;2023-02-05T07:00:11;-0.50;99.90
37844;DHT22;63793;57.632;18.292;2023-02-05T07:02:38;-0.50;99.90
37844;DHT22;63793;57.632;18.292;2023-02-05T07:05:05;-0.50;99.90
37844;DHT22;63793;57.632;18.292;2023-02-05T07:07:32;-0.50;99.90
37844;DHT22;63793;57.632;18.292;2023-02-05T07:10:00;-0.40;99.90
37844;DHT22;63793;57.632;18.292;2023-02-05T07:12:27;-0.30;99.90
37844;DHT22;63793;57.632;18.292;2023-02-05T07:14:54;-0.30;99.90
37844;DHT22;63793;57.632;18.292;2023-02-05T07:17:21;-0.30;99.90
37844;DHT22;63793;57.632;18.292;2023-02-05T07:19:48;-0.30;99.90
37844;DHT22;63793;57.632;18.292;2023-02-05T07:22:15;-0.30;99.90
37844;DHT22;63793;57.632;18.292;2023-02-05T07:24:42;-0.20;99.90
37844;DHT22;63793;57.632;18.292;2023-02-05T07:27:09;-0.20;99.90
37844;DHT22;63793;57.632;18.292;2023-02-05T07:29:36;-0.20;99.90
37844;DHT22;63793;57.632;18.292;2023-02-05T07:32:02;-0.20;99.90
37844;DHT22;63793;57.632;18.292;2023-02-05T07:34:29;-0.20;99.90
37844;DHT22;63793;57.632;18.292;2023-02-05T07:36:56;-0.10;99.90
37844;DHT22;63793;57.632;18.292;2023-02-05T07:39:23;-0.20;99.90
37844;DHT22;63793;57.632;18.292;2023-02-05T07:41:50;-0.10;99.90
37844;DHT22;63793;57.632;18.292;2023-02-05T07:44:26;-0.10;99.90
37844;DHT22;63793;57.632;18.292;2023-02-05T07:46:53;-0.10;99.90
37844;DHT22;63793;57.632;18.292;2023-02-05T07:49:20;-0.10;99.90
37844;DHT22;63793;57.632;18.292;2023-02-05T07:51:47;-0.10;99.90
37844;DHT22;63793;57.632;18.292;2023-02-05T07:54:14;-0.10;99.90
37844;DHT22;63793;57.632;18.292;2023-02-05T07:56:41;-0.10;99.90
37844;DHT22;63793;57.632;18.292;2023-02-05T07:59:08;-0.10;99.90
37844;DHT22;63793;57.632;18.292;2023-02-05T08:01:35;-0.10;99.90
37844;DHT22;63793;57.632;18.292;2023-02-05T08:04:02;0.00;99.90
37844;DHT22;63793;57.632;18.292;2023-02-05T08:06:29;0.00;99.90
37844;DHT22;63793;57.632;18.292;2023-02-05T08:08:56;0.00;99.90
37844;DHT22;63793;57.632;18.292;2023-02-05T08:11:23;0.00;99.90
37844;DHT22;63793;57.632;18.292;2023-02-05T08:13:50;0.00;99.90
37844;DHT22;63793;57.632;18.292;2023-02-05T08:16:17;0.00;99.90
37844;DHT22;63793;57.632;18.292;2023-02-05T08:18:49;0.00;99.90
37844;DHT22;63793;57.632;18.292;2023-02-05T08:21:16;0.10;99.90
37844;DHT22;63793;57.632;18.292;2023-02-05T08:23:43;0.10;99.90
37844;DHT22;63793;57.632;18.292;2023-02-05T08:26:10;0.10;99.90
37844;DHT22;63793;57.632;18.292;2023-02-05T08:28:39;0.10;99.90
37844;DHT22;63793;57.632;18.292;2023-02-05T08:31:10;0.10;99.90
37844;DHT22;63793;57.632;18.292;2023-02-05T08:33:37;0.10;99.90
37844;DHT22;63793;57.632;18.292;2023-02-05T08:36:05;0.10;99.90
37844;DHT22;63793;57.632;18.292;2023-02-05T08:38:32;0.20;99.90
37844;DHT22;63793;57.632;18.292;2023-02-05T08:41:03;0.20;99.90
37844;DHT22;63793;57.632;18.292;2023-02-05T08:43:30;0.20;99.90
37844;DHT22;63793;57.632;18.292;2023-02-05T08:45:57;0.20;99.90
37844;DHT22;63793;57.632;18.292;2023-02-05T08:48:24;0.20;99.90
37844;DHT22;63793;57.632;18.292;2023-02-05T08:50:51;0.20;99.90
37844;DHT22;63793;57.632;18.292;2023-02-05T08:53:18;0.20;99.90
37844;DHT22;63793;57.632;18.292;2023-02-05T08:55:44;0.20;99.90
37844;DHT22;63793;57.632;18.292;2023-02-05T08:58:11;0.20;99.90
37844;DHT22;63793;57.632;18.292;2023-02-05T09:00:38;0.20;99.90
37844;DHT22;63793;57.632;18.292;2023-02-05T09:03:05;0.30;99.90
37844;DHT22;63793;57.632;18.292;2023-02-05T09:05:32;0.30;99.90
37844;DHT22;63793;57.632;18.292;2023-02-05T09:07:59;0.30;99.90
37844;DHT22;63793;57.632;18.292;2023-02-05T09:10:26;0.30;99.90
37844;DHT22;63793;57.632;18.292;2023-02-05T09:12:53;0.30;99.90
37844;DHT22;63793;57.632;18.292;2023-02-05T09:15:20;0.30;99.90
37844;DHT22;63793;57.632;18.292;2023-02-05T09:17:47;0.30;99.90
37844;DHT22;63793;57.632;18.292;2023-02-05T09:20:14;0.30;99.90
37844;DHT22;63793;57.632;18.292;2023-02-05T09:22:41;0.30;99.90
37844;DHT22;63793;57.632;18.292;2023-02-05T09:25:07;0.40;99.90
37844;DHT22;63793;57.632;18.292;2023-02-05T09:27:34;0.40;99.90
37844;DHT22;63793;57.632;18.292;2023-02-05T09:30:01;0.40;99.90
37844;DHT22;63793;57.632;18.292;2023-02-05T09:32:28;0.40;99.90
37844;DHT22;63793;57.632;18.292;2023-02-05T09:34:55;0.40;99.90
37844;DHT22;63793;57.632;18.292;2023-02-05T09:37:22;0.50;99.90
37844;DHT22;63793;57.632;18.292;2023-02-05T09:39:49;0.40;99.90
37844;DHT22;63793;57.632;18.292;2023-02-05T09:42:43;0.40;99.90
37844;DHT22;63793;57.632;18.292;2023-02-05T09:50:56;0.50;99.90
37844;DHT22;63793;57.632;18.292;2023-02-05T09:53:26;0.50;99.90
37844;DHT22;63793;57.632;18.292;2023-02-05T09:55:56;0.60;99.90
37844;DHT22;63793;57.632;18.292;2023-02-05T09:58:30;0.60;99.90
37844;DHT22;63793;57.632;18.292;2023-02-05T10:01:04;0.60;99.90
37844;DHT22;63793;57.632;18.292;2023-02-05T10:04:04;0.60;99.90
37844;DHT22;63793;57.632;18.292;2023-02-05T10:10:18;0.60;99.90
37844;DHT22;63793;57.632;18.292;2023-02-05T10:19:13;0.60;99.90
37844;DHT22;63793;57.632;18.292;2023-02-05T10:24:32;0.60;99.90
37844;DHT22;63793;57.632;18.292;2023-02-05T10:27:12;0.70;99.90
37844;DHT22;63793;57.632;18.292;2023-02-05T10:30:02;0.70;99.90
37844;DHT22;63793;57.632;18.292;2023-02-05T10:33:17;0.80;99.90
37844;DHT22;63793;57.632;18.292;2023-02-05T10:35:26;0.80;99.90
37844;DHT22;63793;57.632;18.292;2023-02-05T10:37:57;0.80;99.90
37844;DHT22;63793;57.632;18.292;2023-02-05T10:40:28;0.90;99.90
37844;DHT22;63793;57.632;18.292;2023-02-05T10:45:39;1.00;99.90
37844;DHT22;63793;57.632;18.292;2023-02-05T10:48:23;0.90;99.90
37844;DHT22;63793;57.632;18.292;2023-02-05T10:50:59;1.00;99.90
37844;DHT22;63793;57.632;18.292;2023-02-05T10:53:28;1.00;99.90
37844;DHT22;63793;57.632;18.292;2023-02-05T10:55:57;1.00;99.90
37844;DHT22;63793;57.632;18.292;2023-02-05T11:01:14;1.00;99.90
37844;DHT22;63793;57.632;18.292;2023-02-05T11:03:51;0.90;99.90
37844;DHT22;63793;57.632;18.292;2023-02-05T11:06:20;0.90;99.90
37844;DHT22;63793;57.632;18.292;2023-02-05T11:08:47;0.80;99.90
37844;DHT22;63793;57.632;18.292;2023-02-05T11:14:00;0.80;99.90
37844;DHT22;63793;57.632;18.292;2023-02-05T11:16:42;0.80;99.90
37844;DHT22;63793;57.632;18.292;2023-02-05T11:19:28;0.80;99.90
37844;DHT22;63793;57.632;18.292;2023-02-05T11:21:58;0.80;99.90
37844;DHT22;63793;57.632;18.292;2023-02-05T11:24:30;0.80;99.90
37844;DHT22;63793;57.632;18.292;2023-02-05T11:29:41;0.90;99.90
37844;DHT22;63793;57.632;18.292;2023-02-05T11:34:46;0.90;99.90
37844;DHT22;63793;57.632;18.292;2023-02-05T11:37:17;1.00;99.90
37844;DHT22;63793;57.632;18.292;2023-02-05T11:39:45;1.10;99.90
37844;DHT22;63793;57.632;18.292;2023-02-05T11:42:22;1.10;99.90
37844;DHT22;63793;57.632;18.292;2023-02-05T11:44:54;1.20;99.90
37844;DHT22;63793;57.632;18.292;2023-02-05T11:47:34;1.20;99.90
37844;DHT22;63793;57.632;18.292;2023-02-05T11:50:03;1.30;99.90
37844;DHT22;63793;57.632;18.292;2023-02-05T11:52:34;1.30;99.90
37844;DHT22;63793;57.632;18.292;2023-02-05T11:55:04;1.30;99.90
37844;DHT22;63793;57.632;18.292;2023-02-05T11:57:36;1.30;99.90
37844;DHT22;63793;57.632;18.292;2023-02-05T12:02:36;1.30;99.90
37844;DHT22;63793;57.632;18.292;2023-02-05T12:10:27;1.30;99.90
37844;DHT22;63793;57.632;18.292;2023-02-05T12:21:14;1.30;99.90
37844;DHT22;63793;57.632;18.292;2023-02-05T12:24:17;1.30;99.90
37844;DHT22;63793;57.632;18.292;2023-02-05T12:26:50;1.30;99.90
37844;DHT22;63793;57.632;18.292;2023-02-05T12:37:59;1.30;99.90
37844;DHT22;63793;57.632;18.292;2023-02-05T12:43:40;1.30;99.90
37844;DHT22;63793;57.632;18.292;2023-02-05T12:56:45;1.20;99.90
37844;DHT22;63793;57.632;18.292;2023-02-05T12:59:35;1.20;99.90
37844;DHT22;63793;57.632;18.292;2023-02-05T13:05:17;1.20;99.90
37844;DHT22;63793;57.632;18.292;2023-02-05T13:08:11;1.20;99.90
37844;DHT22;63793;57.632;18.292;2023-02-05T13:10:49;1.20;99.90
37844;DHT22;63793;57.632;18.292;2023-02-05T13:13:24;1.30;99.90
37844;DHT22;63793;57.632;18.292;2023-02-05T13:16:06;1.30;99.90
37844;DHT22;63793;57.632;18.292;2023-02-05T13:18:38;1.20;99.90
37844;DHT22;63793;57.632;18.292;2023-02-05T13:21:11;1.20;99.90
37844;DHT22;63793;57.632;18.292;2023-02-05T13:24:26;1.20;99.90
37844;DHT22;63793;57.632;18.292;2023-02-05T13:27:41;1.20;99.90
37844;DHT22;63793;57.632;18.292;2023-02-05T13:30:33;1.20;99.90
37844;DHT22;63793;57.632;18.292;2023-02-05T13:33:04;1.20;99.90
37844;DHT22;63793;57.632;18.292;2023-02-05T13:35:42;1.10;99.90
37844;DHT22;63793;57.632;18.292;2023-02-05T13:49:32;1.00;99.90
37844;DHT22;63793;57.632;18.292;2023-02-05T13:52:18;1.00;99.90
37844;DHT22;63793;57.632;18.292;2023-02-05T13:55:14;1.00;99.90
37844;DHT22;63793;57.632;18.292;2023-02-05T13:58:13;1.00;99.90
37844;DHT22;63793;57.632;18.292;2023-02-05T14:00:52;1.00;99.90
37844;DHT22;63793;57.632;18.292;2023-02-05T14:06:19;0.90;99.90
37844;DHT22;63793;57.632;18.292;2023-02-05T14:09:03;0.90;99.90
37844;DHT22;63793;57.632;18.292;2023-02-05T14:11:53;0.90;99.90
37844;DHT22;63793;57.632;18.292;2023-02-05T14:16:48;0.90;99.90
37844;DHT22;63793;57.632;18.292;2023-02-05T14:19:20;0.90;99.90
37844;DHT22;63793;57.632;18.292;2023-02-05T14:21:56;0.90;99.90
37844;DHT22;63793;57.632;18.292;2023-02-05T14:24:42;0.80;99.90
37844;DHT22;63793;57.632;18.292;2023-02-05T14:29:56;0.80;99.90
37844;DHT22;63793;57.632;18.292;2023-02-05T14:35:32;0.80;99.90
37844;DHT22;63793;57.632;18.292;2023-02-05T14:38:30;0.80;99.90
37844;DHT22;63793;57.632;18.292;2023-02-05T14:41:12;0.90;99.90
37844;DHT22;63793;57.632;18.292;2023-02-05T14:43:43;0.80;99.90
37844;DHT22;63793;57.632;18.292;2023-02-05T14:46:33;0.80;99.90
37844;DHT22;63793;57.632;18.292;2023-02-05T14:49:04;0.80;99.90
37844;DHT22;63793;57.632;18.292;2023-02-05T14:51:48;0.80;99.90
37844;DHT22;63793;57.632;18.292;2023-02-05T14:54:21;0.80;99.90
37844;DHT22;63793;57.632;18.292;2023-02-05T14:56:51;0.80;99.90
37844;DHT22;63793;57.632;18.292;2023-02-05T14:59:23;0.80;99.90
37844;DHT22;63793;57.632;18.292;2023-02-05T15:01:56;0.80;99.90
37844;DHT22;63793;57.632;18.292;2023-02-05T15:04:45;0.80;99.90
37844;DHT22;63793;57.632;18.292;2023-02-05T15:07:22;0.80;99.90
37844;DHT22;63793;57.632;18.292;2023-02-05T15:10:02;0.70;99.90
37844;DHT22;63793;57.632;18.292;2023-02-05T15:13:00;0.80;99.90
37844;DHT22;63793;57.632;18.292;2023-02-05T15:15:30;0.70;99.90
37844;DHT22;63793;57.632;18.292;2023-02-05T15:20:36;0.70;99.90
37844;DHT22;63793;57.632;18.292;2023-02-05T15:23:16;0.60;99.90
37844;DHT22;63793;57.632;18.292;2023-02-05T15:25:57;0.70;99.90
37844;DHT22;63793;57.632;18.292;2023-02-05T15:31:33;0.60;99.90
37844;DHT22;63793;57.632;18.292;2023-02-05T15:34:47;0.70;99.90
37844;DHT22;63793;57.632;18.292;2023-02-05T15:37:22;0.70;99.90
37844;DHT22;63793;57.632;18.292;2023-02-05T15:39:58;0.70;99.90
37844;DHT22;63793;57.632;18.292;2023-02-05T15:42:35;0.70;99.90
37844;DHT22;63793;57.632;18.292;2023-02-05T15:51:01;0.80;99.90
37844;DHT22;63793;57.632;18.292;2023-02-05T15:56:33;0.80;99.90
37844;DHT22;63793;57.632;18.292;2023-02-05T16:01:42;0.80;99.90
37844;DHT22;63793;57.632;18.292;2023-02-05T16:06:43;0.80;99.90
37844;DHT22;63793;57.632;18.292;2023-02-05T16:09:18;0.80;99.90
37844;DHT22;63793;57.632;18.292;2023-02-05T16:11:46;0.80;99.90
37844;DHT22;63793;57.632;18.292;2023-02-05T16:14:24;0.80;99.90
37844;DHT22;63793;57.632;18.292;2023-02-05T16:17:11;0.80;99.90
37844;DHT22;63793;57.632;18.292;2023-02-05T16:19:46;0.80;99.90
37844;DHT22;63793;57.632;18.292;2023-02-05T16:24:48;0.90;99.90
37844;DHT22;63793;57.632;18.292;2023-02-05T16:27:20;0.90;99.90
37844;DHT22;63793;57.632;18.292;2023-02-05T16:29:54;0.90;99.90
37844;DHT22;63793;57.632;18.292;2023-02-05T16:32:29;0.90;99.90
37844;DHT22;63793;57.632;18.292;2023-02-05T16:34:59;0.90;99.90
37844;DHT22;63793;57.632;18.292;2023-02-05T16:37:29;1.00;99.90
37844;DHT22;63793;57.632;18.292;2023-02-05T16:40:00;1.00;99.90
37844;DHT22;63793;57.632;18.292;2023-02-05T16:42:31;1.00;99.90
37844;DHT22;63793;57.632;18.292;2023-02-05T16:47:35;1.10;99.90
37844;DHT22;63793;57.632;18.292;2023-02-05T16:50:40;1.10;99.90
37844;DHT22;63793;57.632;18.292;2023-02-05T16:53:21;1.10;99.90
37844;DHT22;63793;57.632;18.292;2023-02-05T16:55:57;1.00;99.90
37844;DHT22;63793;57.632;18.292;2023-02-05T16:58:28;1.00;99.90
37844;DHT22;63793;57.632;18.292;2023-02-05T17:01:00;1.00;99.90
37844;DHT22;63793;57.632;18.292;2023-02-05T17:03:37;1.00;99.90
37844;DHT22;63793;57.632;18.292;2023-02-05T17:06:11;1.00;99.90
37844;DHT22;63793;57.632;18.292;2023-02-05T17:08:40;1.00;99.90
37844;DHT22;63793;57.632;18.292;2023-02-05T17:11:31;1.10;99.90
37844;DHT22;63793;57.632;18.292;2023-02-05T17:14:27;1.10;99.90
37844;DHT22;63793;57.632;18.292;2023-02-05T17:16:58;1.10;99.90
37844;DHT22;63793;57.632;18.292;2023-02-05T17:19:30;1.10;99.90
37844;DHT22;63793;57.632;18.292;2023-02-05T17:24:47;1.20;99.90
37844;DHT22;63793;57.632;18.292;2023-02-05T17:27:36;1.20;99.90
37844;DHT22;63793;57.632;18.292;2023-02-05T17:30:05;1.20;99.90
37844;DHT22;63793;57.632;18.292;2023-02-05T17:32:36;1.30;99.90
37844;DHT22;63793;57.632;18.292;2023-02-05T17:35:14;1.20;99.90
37844;DHT22;63793;57.632;18.292;2023-02-05T17:37:42;1.10;99.90
37844;DHT22;63793;57.632;18.292;2023-02-05T17:40:11;0.90;99.90
37844;DHT22;63793;57.632;18.292;2023-02-05T17:42:38;0.80;99.90
37844;DHT22;63793;57.632;18.292;2023-02-05T17:47:44;0.70;99.90
37844;DHT22;63793;57.632;18.292;2023-02-05T17:50:11;0.60;99.90
37844;DHT22;63793;57.632;18.292;2023-02-05T17:52:38;0.60;99.90
37844;DHT22;63793;57.632;18.292;2023-02-05T17:55:06;0.60;99.90
37844;DHT22;63793;57.632;18.292;2023-02-05T17:57:35;0.60;99.90
37844;DHT22;63793;57.632;18.292;2023-02-05T18:00:03;0.60;99.90
37844;DHT22;63793;57.632;18.292;2023-02-05T18:02:37;0.60;99.90
37844;DHT22;63793;57.632;18.292;2023-02-05T18:05:04;0.60;99.90
37844;DHT22;63793;57.632;18.292;2023-02-05T18:10:04;0.50;99.90
37844;DHT22;63793;57.632;18.292;2023-02-05T18:12:32;0.40;99.90
37844;DHT22;63793;57.632;18.292;2023-02-05T18:14:58;0.40;99.90
37844;DHT22;63793;57.632;18.292;2023-02-05T18:17:25;0.40;99.90
37844;DHT22;63793;57.632;18.292;2023-02-05T18:19:52;0.30;99.90
37844;DHT22;63793;57.632;18.292;2023-02-05T18:22:19;0.30;99.90
37844;DHT22;63793;57.632;18.292;2023-02-05T18:24:47;0.30;99.90
37844;DHT22;63793;57.632;18.292;2023-02-05T18:27:13;0.30;99.90
37844;DHT22;63793;57.632;18.292;2023-02-05T18:29:40;0.30;99.90
37844;DHT22;63793;57.632;18.292;2023-02-05T18:32:09;0.30;99.90